sensor_id;sensor_type;location;lat;lon;timestamp;pressure;altitude;pressure_sealevel;temperature;humidity
2841;BME280;53423;49.224;12.074;2023-05-01T00:01:44;97843.91;;;11.06;52.30
2841;BME280;53423;49.224;12.074;2023-05-01T00:04:12;97843.91;;;11.06;52.66
2841;BME280;53423;49.224;12.074;2023-05-01T00:06:40;97835.38;;;11.12;52.67
2841;BME280;53423;49.224;12.074;2023-05-01T00:09:08;97833.75;;;11.19;52.40
2841;BME280;53423;49.224;12.074;2023-05-01T00:11:36;97833.91;;;11.10;53.26
2841;BME280;53423;49.224;12.074;2023-05-01T00:14:05;97835.72;;;11.01;52.24
2841;BME280;53423;49.224;12.074;2023-05-01T00:16:33;97834.91;;;11.01;52.56
2841;BME280;53423;49.224;12.074;2023-05-01T00:19:02;97828.84;;;11.16;51.56
2841;BME280;53423;49.224;12.074;2023-05-01T00:21:30;97825.88;;;11.11;52.42
2841;BME280;53423;49.224;12.074;2023-05-01T00:23:58;97830.47;;;11.01;52.43
2841;BME280;53423;49.224;12.074;2023-05-01T00:26:26;97825.06;;;10.95;52.80
2841;BME280;53423;49.224;12.074;2023-05-01T00:28:56;97824.22;;;11.10;52.89
2841;BME280;53423;49.224;12.074;2023-05-01T00:31:26;97817.34;;;11.09;51.68
2841;BME280;53423;49.224;12.074;2023-05-01T00:33:54;97821.44;;;10.88;52.37
2841;BME280;53423;49.224;12.074;2023-05-01T00:36:22;97823.56;;;10.76;53.21
2841;BME280;53423;49.224;12.074;2023-05-01T00:38:50;97822.56;;;10.77;52.49
2841;BME280;53423;49.224;12.074;2023-05-01T00:41:18;97814.38;;;10.80;52.71
2841;BME280;53423;49.224;12.074;2023-05-01T00:43:46;97802.13;;;11.05;52.13
2841;BME280;53423;49.224;12.074;2023-05-01T00:46:14;97810.31;;;11.02;51.93
2841;BME280;53423;49.224;12.074;2023-05-01T00:48:45;97797.84;;;10.72;52.68
2841;BME280;53423;49.224;12.074;2023-05-01T00:51:13;97797.69;;;10.73;53.12
2841;BME280;53423;49.224;12.074;2023-05-01T00:53:42;97804.88;;;10.71;53.50
2841;BME280;53423;49.224;12.074;2023-05-01T00:56:10;97799.09;;;10.52;53.35
2841;BME280;53423;49.224;12.074;2023-05-01T00:58:39;97802.59;;;10.84;52.09
2841;BME280;53423;49.224;12.074;2023-05-01T01:01:07;97800.97;;;10.99;52.05
2841;BME280;53423;49.224;12.074;2023-05-01T01:03:35;97799.47;;;10.89;52.24
2841;BME280;53423;49.224;12.074;2023-05-01T01:06:08;97796.34;;;10.77;52.35
2841;BME280;53423;49.224;12.074;2023-05-01T01:08:41;97794.41;;;10.79;51.93
2841;BME280;53423;49.224;12.074;2023-05-01T01:11:14;97781.44;;;10.78;52.44
2841;BME280;53423;49.224;12.074;2023-05-01T01:13:54;97788.94;;;10.57;53.11
2841;BME280;53423;49.224;12.074;2023-05-01T01:16:28;97783.06;;;10.63;53.20
2841;BME280;53423;49.224;12.074;2023-05-01T01:19:09;97783.56;;;10.82;52.57
2841;BME280;53423;49.224;12.074;2023-05-01T01:21:45;97772.63;;;10.87;52.56
2841;BME280;53423;49.224;12.074;2023-05-01T01:24:42;97770.97;;;11.02;51.58
2841;BME280;53423;49.224;12.074;2023-05-01T01:27:47;97771.13;;;10.84;52.29
2841;BME280;53423;49.224;12.074;2023-05-01T01:34:01;97779.63;;;10.54;54.53
2841;BME280;53423;49.224;12.074;2023-05-01T01:36:36;97781.13;;;10.81;53.00
2841;BME280;53423;49.224;12.074;2023-05-01T01:39:10;97766.22;;;10.89;52.57
2841;BME280;53423;49.224;12.074;2023-05-01T01:41:41;97773.75;;;10.68;52.72
2841;BME280;53423;49.224;12.074;2023-05-01T01:44:16;97771.94;;;10.61;53.00
2841;BME280;53423;49.224;12.074;2023-05-01T01:46:47;97771.88;;;10.37;53.62
2841;BME280;53423;49.224;12.074;2023-05-01T01:49:22;97774.56;;;10.61;53.43
2841;BME280;53423;49.224;12.074;2023-05-01T01:51:52;97768.34;;;10.70;52.91
2841;BME280;53423;49.224;12.074;2023-05-01T01:54:26;97760.63;;;10.60;52.77
2841;BME280;53423;49.224;12.074;2023-05-01T01:56:58;97754.88;;;10.49;53.25
2841;BME280;53423;49.224;12.074;2023-05-01T01:59:31;97752.25;;;10.33;53.94
2841;BME280;53423;49.224;12.074;2023-05-01T02:02:01;97749.47;;;10.34;54.06
2841;BME280;53423;49.224;12.074;2023-05-01T02:04:33;97744.84;;;10.20;55.04
2841;BME280;53423;49.224;12.074;2023-05-01T02:07:02;97751.34;;;10.08;54.78
2841;BME280;53423;49.224;12.074;2023-05-01T02:09:33;97750.25;;;10.27;54.25
2841;BME280;53423;49.224;12.074;2023-05-01T02:12:04;97749.91;;;10.22;55.04
2841;BME280;53423;49.224;12.074;2023-05-01T02:14:34;97746.78;;;10.18;55.03
2841;BME280;53423;49.224;12.074;2023-05-01T02:17:03;97750.72;;;10.14;54.97
2841;BME280;53423;49.224;12.074;2023-05-01T02:19:33;97739.97;;;9.91;55.03
2841;BME280;53423;49.224;12.074;2023-05-01T02:22:03;97740.81;;;9.92;55.71
2841;BME280;53423;49.224;12.074;2023-05-01T02:24:32;97733.63;;;10.02;54.56
2841;BME280;53423;49.224;12.074;2023-05-01T02:27:06;97730.94;;;10.20;54.13
2841;BME280;53423;49.224;12.074;2023-05-01T02:29:35;97724.38;;;10.32;53.58
2841;BME280;53423;49.224;12.074;2023-05-01T02:32:03;97726.81;;;10.17;54.46
2841;BME280;53423;49.224;12.074;2023-05-01T02:34:34;97727.22;;;10.38;53.92
2841;BME280;53423;49.224;12.074;2023-05-01T02:37:03;97733.69;;;10.10;54.33
2841;BME280;53423;49.224;12.074;2023-05-01T02:39:32;97730.59;;;10.15;54.41
2841;BME280;53423;49.224;12.074;2023-05-01T02:42:02;97728.28;;;10.12;54.53
2841;BME280;53423;49.224;12.074;2023-05-01T02:44:36;97724.69;;;10.13;54.93
2841;BME280;53423;49.224;12.074;2023-05-01T02:47:06;97727.66;;;10.18;54.79
2841;BME280;53423;49.224;12.074;2023-05-01T02:49:37;97721.91;;;10.14;55.09
2841;BME280;53423;49.224;12.074;2023-05-01T02:52:06;97717.34;;;10.16;54.68
2841;BME280;53423;49.224;12.074;2023-05-01T02:54:34;97716.34;;;10.09;54.80
2841;BME280;53423;49.224;12.074;2023-05-01T02:57:03;97712.00;;;9.92;54.55
2841;BME280;53423;49.224;12.074;2023-05-01T02:59:31;97720.09;;;9.73;54.97
2841;BME280;53423;49.224;12.074;2023-05-01T03:01:59;97712.91;;;9.67;55.71
2841;BME280;53423;49.224;12.074;2023-05-01T03:04:27;97708.72;;;9.48;56.03
2841;BME280;53423;49.224;12.074;2023-05-01T03:06:56;97710.09;;;9.60;55.54
2841;BME280;53423;49.224;12.074;2023-05-01T03:09:24;97708.44;;;9.59;55.38
2841;BME280;53423;49.224;12.074;2023-05-01T03:11:52;97697.03;;;9.60;55.21
2841;BME280;53423;49.224;12.074;2023-05-01T03:14:20;97698.66;;;9.28;55.81
2841;BME280;53423;49.224;12.074;2023-05-01T03:16:48;97700.47;;;9.27;55.90
2841;BME280;53423;49.224;12.074;2023-05-01T03:19:16;97706.41;;;9.12;56.69
2841;BME280;53423;49.224;12.074;2023-05-01T03:21:44;97704.72;;;9.03;56.55
2841;BME280;53423;49.224;12.074;2023-05-01T03:24:13;97693.34;;;9.12;56.29
2841;BME280;53423;49.224;12.074;2023-05-01T03:26:42;97701.38;;;9.18;56.08
2841;BME280;53423;49.224;12.074;2023-05-01T03:29:10;97686.97;;;9.14;56.37
2841;BME280;53423;49.224;12.074;2023-05-01T03:31:38;97689.91;;;9.11;56.49
2841;BME280;53423;49.224;12.074;2023-05-01T03:34:06;97687.97;;;9.13;56.47
2841;BME280;53423;49.224;12.074;2023-05-01T03:36:35;97691.03;;;8.83;57.18
2841;BME280;53423;49.224;12.074;2023-05-01T03:39:03;97692.66;;;8.84;57.36
2841;BME280;53423;49.224;12.074;2023-05-01T03:41:33;97690.69;;;9.04;57.27
2841;BME280;53423;49.224;12.074;2023-05-01T03:44:01;97676.44;;;9.24;56.74
2841;BME280;53423;49.224;12.074;2023-05-01T03:46:29;97679.81;;;9.16;56.53
2841;BME280;53423;49.224;12.074;2023-05-01T03:48:57;97685.06;;;9.24;56.51
2841;BME280;53423;49.224;12.074;2023-05-01T03:51:25;97684.56;;;9.21;56.81
2841;BME280;53423;49.224;12.074;2023-05-01T03:53:53;97669.94;;;9.02;57.44
2841;BME280;53423;49.224;12.074;2023-05-01T03:56:24;97669.53;;;9.23;56.97
2841;BME280;53423;49.224;12.074;2023-05-01T03:58:53;97672.34;;;9.29;56.59
2841;BME280;53423;49.224;12.074;2023-05-01T04:01:23;97679.19;;;9.22;56.60
2841;BME280;53423;49.224;12.074;2023-05-01T04:03:51;97678.22;;;9.23;56.95
2841;BME280;53423;49.224;12.074;2023-05-01T04:06:20;97677.34;;;9.48;55.95
2841;BME280;53423;49.224;12.074;2023-05-01T04:08:48;97681.97;;;9.62;55.71
2841;BME280;53423;49.224;12.074;2023-05-01T04:11:16;97679.78;;;9.42;56.83
2841;BME280;53423;49.224;12.074;2023-05-01T04:13:44;97674.59;;;9.58;55.98
2841;BME280;53423;49.224;12.074;2023-05-01T04:16:13;97673.88;;;9.40;56.53
2841;BME280;53423;49.224;12.074;2023-05-01T04:18:41;97669.28;;;9.34;57.40
2841;BME280;53423;49.224;12.074;2023-05-01T04:21:09;97664.47;;;9.63;56.34
2841;BME280;53423;49.224;12.074;2023-05-01T04:23:38;97660.25;;;9.70;56.12
2841;BME280;53423;49.224;12.074;2023-05-01T04:26:06;97659.91;;;9.73;56.23
2841;BME280;53423;49.224;12.074;2023-05-01T04:28:34;97666.28;;;9.62;56.77
2841;BME280;53423;49.224;12.074;2023-05-01T04:31:02;97661.56;;;9.66;56.35
2841;BME280;53423;49.224;12.074;2023-05-01T04:33:32;97662.88;;;9.78;56.71
2841;BME280;53423;49.224;12.074;2023-05-01T04:35:59;97654.84;;;9.71;56.84
2841;BME280;53423;49.224;12.074;2023-05-01T04:38:27;97667.16;;;9.79;56.92
2841;BME280;53423;49.224;12.074;2023-05-01T04:40:55;97663.38;;;9.81;56.68
2841;BME280;53423;49.224;12.074;2023-05-01T04:43:23;97650.31;;;9.89;56.56
2841;BME280;53423;49.224;12.074;2023-05-01T04:45:52;97653.41;;;9.85;56.77
2841;BME280;53423;49.224;12.074;2023-05-01T04:48:20;97647.53;;;9.91;56.92
2841;BME280;53423;49.224;12.074;2023-05-01T04:50:50;97650.09;;;9.75;56.58
2841;BME280;53423;49.224;12.074;2023-05-01T04:53:18;97651.22;;;9.64;57.54
2841;BME280;53423;49.224;12.074;2023-05-01T04:55:45;97646.72;;;9.98;56.27
2841;BME280;53423;49.224;12.074;2023-05-01T04:58:13;97660.88;;;9.64;57.40
2841;BME280;53423;49.224;12.074;2023-05-01T05:00:41;97658.13;;;9.81;56.77
2841;BME280;53423;49.224;12.074;2023-05-01T05:03:09;97660.75;;;9.73;56.95
2841;BME280;53423;49.224;12.074;2023-05-01T05:05:37;97662.34;;;10.16;56.40
2841;BME280;53423;49.224;12.074;2023-05-01T05:08:06;97663.28;;;10.07;55.21
2841;BME280;53423;49.224;12.074;2023-05-01T05:10:34;97654.59;;;10.06;55.57
2841;BME280;53423;49.224;12.074;2023-05-01T05:13:02;97659.75;;;10.48;54.71
2841;BME280;53423;49.224;12.074;2023-05-01T05:15:30;97662.84;;;10.60;54.59
2841;BME280;53423;49.224;12.074;2023-05-01T05:17:58;97663.13;;;10.81;54.74
2841;BME280;53423;49.224;12.074;2023-05-01T05:20:26;97662.31;;;10.88;52.46
2841;BME280;53423;49.224;12.074;2023-05-01T05:22:54;97666.13;;;10.70;53.03
2841;BME280;53423;49.224;12.074;2023-05-01T05:25:23;97663.94;;;10.89;52.97
2841;BME280;53423;49.224;12.074;2023-05-01T05:27:51;97666.34;;;11.15;51.35
2841;BME280;53423;49.224;12.074;2023-05-01T05:30:19;97660.69;;;11.42;50.80
2841;BME280;53423;49.224;12.074;2023-05-01T05:32:47;97656.00;;;11.21;50.85
2841;BME280;53423;49.224;12.074;2023-05-01T05:35:15;97657.94;;;11.27;50.53
2841;BME280;53423;49.224;12.074;2023-05-01T05:37:43;97662.59;;;11.64;51.06
2841;BME280;53423;49.224;12.074;2023-05-01T05:40:12;97652.41;;;11.69;50.29
2841;BME280;53423;49.224;12.074;2023-05-01T05:42:41;97658.63;;;11.99;50.84
2841;BME280;53423;49.224;12.074;2023-05-01T05:45:09;97654.16;;;11.77;51.03
2841;BME280;53423;49.224;12.074;2023-05-01T05:47:37;97659.81;;;12.19;50.33
2841;BME280;53423;49.224;12.074;2023-05-01T05:50:07;97658.81;;;12.80;47.74
2841;BME280;53423;49.224;12.074;2023-05-01T05:52:35;97653.28;;;12.89;47.71
2841;BME280;53423;49.224;12.074;2023-05-01T05:55:04;97656.97;;;12.66;48.61
2841;BME280;53423;49.224;12.074;2023-05-01T05:57:32;97656.25;;;13.38;45.22
2841;BME280;53423;49.224;12.074;2023-05-01T06:00:05;97665.59;;;13.11;46.85
2841;BME280;53423;49.224;12.074;2023-05-01T06:02:33;97649.63;;;13.42;45.27
2841;BME280;53423;49.224;12.074;2023-05-01T06:05:01;97644.94;;;13.73;44.12
2841;BME280;53423;49.224;12.074;2023-05-01T06:07:29;97647.72;;;14.01;44.34
2841;BME280;53423;49.224;12.074;2023-05-01T06:09:57;97652.66;;;14.94;42.48
2841;BME280;53423;49.224;12.074;2023-05-01T06:12:30;97650.88;;;15.02;41.95
2841;BME280;53423;49.224;12.074;2023-05-01T06:15:01;97646.09;;;14.90;42.24
2841;BME280;53423;49.224;12.074;2023-05-01T06:17:30;97648.34;;;15.21;41.14
2841;BME280;53423;49.224;12.074;2023-05-01T06:20:00;97646.38;;;15.02;42.55
2841;BME280;53423;49.224;12.074;2023-05-01T06:22:30;97644.59;;;15.37;41.67
2841;BME280;53423;49.224;12.074;2023-05-01T06:24:58;97628.91;;;15.76;40.99
2841;BME280;53423;49.224;12.074;2023-05-01T06:27:27;97626.81;;;16.32;39.86
2841;BME280;53423;49.224;12.074;2023-05-01T06:29:55;97618.66;;;16.00;41.62
2841;BME280;53423;49.224;12.074;2023-05-01T06:32:23;97620.06;;;15.09;42.16
2841;BME280;53423;49.224;12.074;2023-05-01T06:34:52;97617.22;;;16.04;39.76
2841;BME280;53423;49.224;12.074;2023-05-01T06:37:20;97615.03;;;16.28;39.33
2841;BME280;53423;49.224;12.074;2023-05-01T06:39:48;97617.25;;;16.11;39.70
2841;BME280;53423;49.224;12.074;2023-05-01T06:42:16;97615.03;;;16.34;39.24
2841;BME280;53423;49.224;12.074;2023-05-01T06:44:46;97612.22;;;15.62;40.95
2841;BME280;53423;49.224;12.074;2023-05-01T06:47:14;97610.59;;;15.27;41.90
2841;BME280;53423;49.224;12.074;2023-05-01T06:49:42;97602.59;;;15.48;42.04
2841;BME280;53423;49.224;12.074;2023-05-01T06:52:11;97604.13;;;15.70;40.46
2841;BME280;53423;49.224;12.074;2023-05-01T06:54:39;97602.72;;;15.81;40.98
2841;BME280;53423;49.224;12.074;2023-05-01T06:57:07;97599.53;;;16.18;40.27
2841;BME280;53423;49.224;12.074;2023-05-01T06:59:35;97601.41;;;16.31;39.66
2841;BME280;53423;49.224;12.074;2023-05-01T07:02:03;97600.78;;;16.35;39.48
2841;BME280;53423;49.224;12.074;2023-05-01T07:04:31;97596.16;;;16.50;38.66
2841;BME280;53423;49.224;12.074;2023-05-01T07:06:59;97593.28;;;16.58;39.23
2841;BME280;53423;49.224;12.074;2023-05-01T07:09:29;97593.34;;;17.48;37.59
2841;BME280;53423;49.224;12.074;2023-05-01T07:11:57;97591.84;;;18.03;37.53
2841;BME280;53423;49.224;12.074;2023-05-01T07:14:25;97591.38;;;17.81;36.47
2841;BME280;53423;49.224;12.074;2023-05-01T07:16:53;97578.06;;;18.50;35.13
2841;BME280;53423;49.224;12.074;2023-05-01T07:19:21;97576.94;;;18.08;36.29
2841;BME280;53423;49.224;12.074;2023-05-01T07:21:49;97576.03;;;17.46;37.39
2841;BME280;53423;49.224;12.074;2023-05-01T07:24:17;97585.59;;;17.53;37.64
2841;BME280;53423;49.224;12.074;2023-05-01T07:26:47;97583.72;;;17.60;37.35
2841;BME280;53423;49.224;12.074;2023-05-01T07:29:15;97585.09;;;17.76;36.40
2841;BME280;53423;49.224;12.074;2023-05-01T07:31:43;97571.06;;;18.00;36.21
2841;BME280;53423;49.224;12.074;2023-05-01T07:34:11;97583.16;;;17.45;36.93
2841;BME280;53423;49.224;12.074;2023-05-01T07:36:39;97580.56;;;17.32;36.91
2841;BME280;53423;49.224;12.074;2023-05-01T07:39:07;97580.53;;;17.38;37.21
2841;BME280;53423;49.224;12.074;2023-05-01T07:41:35;97584.09;;;17.06;38.37
2841;BME280;53423;49.224;12.074;2023-05-01T07:44:04;97579.84;;;17.56;37.11
2841;BME280;53423;49.224;12.074;2023-05-01T07:46:32;97580.91;;;17.42;37.68
2841;BME280;53423;49.224;12.074;2023-05-01T07:49:00;97576.75;;;17.72;38.09
2841;BME280;53423;49.224;12.074;2023-05-01T07:51:30;97577.06;;;18.51;35.74
2841;BME280;53423;49.224;12.074;2023-05-01T07:53:57;97566.59;;;18.99;35.11
2841;BME280;53423;49.224;12.074;2023-05-01T07:56:29;97561.28;;;18.99;35.41
2841;BME280;53423;49.224;12.074;2023-05-01T07:58:57;97566.22;;;19.67;33.81
2841;BME280;53423;49.224;12.074;2023-05-01T08:01:26;97569.94;;;19.12;35.41
2841;BME280;53423;49.224;12.074;2023-05-01T08:03:54;97562.06;;;20.19;32.77
2841;BME280;53423;49.224;12.074;2023-05-01T08:06:22;97566.03;;;20.40;32.66
2841;BME280;53423;49.224;12.074;2023-05-01T08:08:50;97566.50;;;21.41;30.19
2841;BME280;53423;49.224;12.074;2023-05-01T08:11:18;97564.69;;;21.69;29.94
2841;BME280;53423;49.224;12.074;2023-05-01T08:13:46;97573.34;;;20.44;32.21
2841;BME280;53423;49.224;12.074;2023-05-01T08:16:14;97564.22;;;20.63;31.38
2841;BME280;53423;49.224;12.074;2023-05-01T08:18:46;97566.69;;;21.11;31.51
2841;BME280;53423;49.224;12.074;2023-05-01T08:21:13;97558.75;;;20.47;29.38
2841;BME280;53423;49.224;12.074;2023-05-01T08:23:41;97557.03;;;19.52;32.62
2841;BME280;53423;49.224;12.074;2023-05-01T08:26:09;97550.59;;;19.05;32.67
2841;BME280;53423;49.224;12.074;2023-05-01T08:28:37;97554.00;;;19.48;32.14
2841;BME280;53423;49.224;12.074;2023-05-01T08:31:05;97553.72;;;19.38;33.82
2841;BME280;53423;49.224;12.074;2023-05-01T08:33:33;97556.97;;;19.88;33.12
2841;BME280;53423;49.224;12.074;2023-05-01T08:36:02;97555.66;;;20.96;30.29
2841;BME280;53423;49.224;12.074;2023-05-01T08:38:30;97549.91;;;21.39;29.99
2841;BME280;53423;49.224;12.074;2023-05-01T08:40:58;97547.78;;;20.14;30.76
2841;BME280;53423;49.224;12.074;2023-05-01T08:43:29;97554.59;;;20.51;31.45
2841;BME280;53423;49.224;12.074;2023-05-01T08:45:57;97552.78;;;20.98;30.13
2841;BME280;53423;49.224;12.074;2023-05-01T08:48:27;97542.75;;;21.67;29.61
2841;BME280;53423;49.224;12.074;2023-05-01T08:50:56;97550.97;;;22.67;27.19
2841;BME280;53423;49.224;12.074;2023-05-01T08:53:27;97546.94;;;21.24;29.67
2841;BME280;53423;49.224;12.074;2023-05-01T08:55:56;97538.81;;;21.42;29.36
2841;BME280;53423;49.224;12.074;2023-05-01T08:58:25;97538.66;;;21.88;29.18
2841;BME280;53423;49.224;12.074;2023-05-01T09:00:55;97533.50;;;21.70;29.24
2841;BME280;53423;49.224;12.074;2023-05-01T09:03:24;97529.72;;;22.10;28.71
2841;BME280;53423;49.224;12.074;2023-05-01T09:05:54;97542.94;;;20.86;29.49
2841;BME280;53423;49.224;12.074;2023-05-01T09:08:22;97538.41;;;21.10;31.37
2841;BME280;53423;49.224;12.074;2023-05-01T09:10:53;97526.94;;;21.89;28.41
2841;BME280;53423;49.224;12.074;2023-05-01T09:13:24;97522.72;;;22.38;28.84
2841;BME280;53423;49.224;12.074;2023-05-01T09:15:52;97515.06;;;21.96;28.29
2841;BME280;53423;49.224;12.074;2023-05-01T09:18:20;97523.31;;;21.16;28.85
2841;BME280;53423;49.224;12.074;2023-05-01T09:20:48;97518.81;;;21.16;30.32
2841;BME280;53423;49.224;12.074;2023-05-01T09:23:16;97516.03;;;21.11;29.67
2841;BME280;53423;49.224;12.074;2023-05-01T09:25:46;97517.44;;;20.79;29.87
2841;BME280;53423;49.224;12.074;2023-05-01T09:28:18;97516.03;;;20.88;29.82
2841;BME280;53423;49.224;12.074;2023-05-01T09:31:19;97515.78;;;20.55;30.34
2841;BME280;53423;49.224;12.074;2023-05-01T09:33:51;97517.31;;;20.51;31.20
2841;BME280;53423;49.224;12.074;2023-05-01T09:36:21;97518.25;;;20.04;32.95
2841;BME280;53423;49.224;12.074;2023-05-01T09:38:50;97515.78;;;20.32;33.77
2841;BME280;53423;49.224;12.074;2023-05-01T09:41:18;97514.41;;;20.29;31.61
2841;BME280;53423;49.224;12.074;2023-05-01T09:43:53;97513.13;;;20.55;31.52
2841;BME280;53423;49.224;12.074;2023-05-01T09:46:22;97523.56;;;20.45;32.23
2841;BME280;53423;49.224;12.074;2023-05-01T09:48:57;97510.22;;;20.45;32.78
2841;BME280;53423;49.224;12.074;2023-05-01T09:51:26;97512.34;;;21.01;30.13
2841;BME280;53423;49.224;12.074;2023-05-01T09:53:55;97514.25;;;21.28;29.40
2841;BME280;53423;49.224;12.074;2023-05-01T09:56:25;97512.16;;;21.30;30.72
2841;BME280;53423;49.224;12.074;2023-05-01T09:58:56;97500.34;;;21.26;30.66
2841;BME280;53423;49.224;12.074;2023-05-01T10:01:37;97503.88;;;20.23;35.22
2841;BME280;53423;49.224;12.074;2023-05-01T10:04:06;97509.28;;;21.32;33.36
2841;BME280;53423;49.224;12.074;2023-05-01T10:06:35;97511.75;;;20.87;32.66
2841;BME280;53423;49.224;12.074;2023-05-01T10:09:04;97506.22;;;21.96;31.79
2841;BME280;53423;49.224;12.074;2023-05-01T10:11:49;97504.34;;;22.58;30.04
2841;BME280;53423;49.224;12.074;2023-05-01T10:14:20;97498.63;;;22.21;30.05
2841;BME280;53423;49.224;12.074;2023-05-01T10:16:50;97499.25;;;21.78;30.30
2841;BME280;53423;49.224;12.074;2023-05-01T10:19:19;97494.63;;;21.62;30.77
2841;BME280;53423;49.224;12.074;2023-05-01T10:21:48;97495.84;;;21.55;31.73
2841;BME280;53423;49.224;12.074;2023-05-01T10:24:16;97508.06;;;20.76;33.61
2841;BME280;53423;49.224;12.074;2023-05-01T10:26:47;97506.28;;;19.83;36.41
2841;BME280;53423;49.224;12.074;2023-05-01T10:29:15;97506.91;;;20.08;34.56
2841;BME280;53423;49.224;12.074;2023-05-01T10:31:47;97494.03;;;21.72;31.90
2841;BME280;53423;49.224;12.074;2023-05-01T10:34:15;97491.69;;;22.86;30.56
2841;BME280;53423;49.224;12.074;2023-05-01T10:36:50;97494.84;;;22.50;28.21
2841;BME280;53423;49.224;12.074;2023-05-01T10:39:31;97488.88;;;22.76;28.43
2841;BME280;53423;49.224;12.074;2023-05-01T10:42:00;97487.19;;;23.30;27.85
2841;BME280;53423;49.224;12.074;2023-05-01T10:44:30;97486.13;;;22.71;29.42
2841;BME280;53423;49.224;12.074;2023-05-01T10:50:05;97485.00;;;22.89;29.14
2841;BME280;53423;49.224;12.074;2023-05-01T10:55:40;97487.06;;;21.71;29.93
2841;BME280;53423;49.224;12.074;2023-05-01T10:58:09;97488.19;;;21.19;32.09
2841;BME280;53423;49.224;12.074;2023-05-01T11:00:37;97481.84;;;22.21;30.93
2841;BME280;53423;49.224;12.074;2023-05-01T11:03:33;97482.47;;;22.99;29.05
2841;BME280;53423;49.224;12.074;2023-05-01T11:06:07;97474.38;;;22.94;28.46
2841;BME280;53423;49.224;12.074;2023-05-01T11:08:36;97470.94;;;23.15;28.89
2841;BME280;53423;49.224;12.074;2023-05-01T11:14:06;97477.75;;;22.84;29.68
2841;BME280;53423;49.224;12.074;2023-05-01T11:16:40;97469.59;;;23.17;28.65
2841;BME280;53423;49.224;12.074;2023-05-01T11:19:09;97471.41;;;22.90;29.38
2841;BME280;53423;49.224;12.074;2023-05-01T11:21:39;97464.00;;;22.76;29.33
2841;BME280;53423;49.224;12.074;2023-05-01T11:24:08;97474.13;;;22.95;28.43
2841;BME280;53423;49.224;12.074;2023-05-01T11:26:37;97460.63;;;22.85;28.94
2841;BME280;53423;49.224;12.074;2023-05-01T11:29:06;97466.63;;;22.54;29.14
2841;BME280;53423;49.224;12.074;2023-05-01T11:31:36;97458.28;;;22.17;29.80
2841;BME280;53423;49.224;12.074;2023-05-01T11:34:04;97451.06;;;22.68;29.64
2841;BME280;53423;49.224;12.074;2023-05-01T11:36:47;97458.66;;;22.09;33.74
2841;BME280;53423;49.224;12.074;2023-05-01T11:39:16;97459.72;;;21.36;33.78
2841;BME280;53423;49.224;12.074;2023-05-01T11:41:45;97451.88;;;22.02;30.76
2841;BME280;53423;49.224;12.074;2023-05-01T11:44:14;97449.66;;;23.25;29.68
2841;BME280;53423;49.224;12.074;2023-05-01T11:46:43;97444.34;;;23.78;28.87
2841;BME280;53423;49.224;12.074;2023-05-01T11:49:11;97446.84;;;22.55;32.54
2841;BME280;53423;49.224;12.074;2023-05-01T11:51:39;97443.38;;;21.44;32.66
2841;BME280;53423;49.224;12.074;2023-05-01T11:54:10;97442.81;;;22.03;32.85
2841;BME280;53423;49.224;12.074;2023-05-01T11:56:41;97434.75;;;22.69;31.10
2841;BME280;53423;49.224;12.074;2023-05-01T11:59:10;97431.84;;;23.35;30.38
2841;BME280;53423;49.224;12.074;2023-05-01T12:01:40;97431.91;;;23.41;29.54
2841;BME280;53423;49.224;12.074;2023-05-01T12:04:10;97429.56;;;22.79;29.93
2841;BME280;53423;49.224;12.074;2023-05-01T12:06:40;97431.81;;;22.33;32.43
2841;BME280;53423;49.224;12.074;2023-05-01T12:09:17;97434.72;;;21.53;33.53
2841;BME280;53423;49.224;12.074;2023-05-01T12:11:47;97440.44;;;20.43;35.83
2841;BME280;53423;49.224;12.074;2023-05-01T12:14:18;97442.28;;;20.31;35.49
2841;BME280;53423;49.224;12.074;2023-05-01T12:16:47;97441.56;;;20.58;35.99
2841;BME280;53423;49.224;12.074;2023-05-01T12:19:15;97438.78;;;20.65;33.06
2841;BME280;53423;49.224;12.074;2023-05-01T12:21:46;97435.00;;;21.12;32.40
2841;BME280;53423;49.224;12.074;2023-05-01T12:24:17;97433.06;;;21.08;35.29
2841;BME280;53423;49.224;12.074;2023-05-01T12:26:45;97427.84;;;20.89;34.79
2841;BME280;53423;49.224;12.074;2023-05-01T12:29:13;97423.00;;;21.54;32.60
2841;BME280;53423;49.224;12.074;2023-05-01T12:31:45;97429.69;;;21.01;34.71
2841;BME280;53423;49.224;12.074;2023-05-01T12:34:14;97424.44;;;20.66;37.15
2841;BME280;53423;49.224;12.074;2023-05-01T12:36:52;97418.78;;;21.42;34.53
2841;BME280;53423;49.224;12.074;2023-05-01T12:39:22;97419.63;;;21.59;32.21
2841;BME280;53423;49.224;12.074;2023-05-01T12:41:50;97424.91;;;21.42;32.15
2841;BME280;53423;49.224;12.074;2023-05-01T12:44:19;97428.19;;;21.33;33.91
2841;BME280;53423;49.224;12.074;2023-05-01T12:46:53;97430.66;;;20.83;32.24
2841;BME280;53423;49.224;12.074;2023-05-01T12:49:22;97420.78;;;21.07;34.54
2841;BME280;53423;49.224;12.074;2023-05-01T12:51:51;97422.06;;;20.92;33.42
2841;BME280;53423;49.224;12.074;2023-05-01T12:54:22;97421.34;;;20.97;35.62
2841;BME280;53423;49.224;12.074;2023-05-01T12:56:50;97423.81;;;20.06;36.82
2841;BME280;53423;49.224;12.074;2023-05-01T12:59:20;97419.72;;;19.10;36.35
2841;BME280;53423;49.224;12.074;2023-05-01T13:01:55;97425.97;;;19.74;37.51
2841;BME280;53423;49.224;12.074;2023-05-01T13:04:25;97427.47;;;20.23;36.51
2841;BME280;53423;49.224;12.074;2023-05-01T13:06:54;97423.47;;;20.03;35.83
2841;BME280;53423;49.224;12.074;2023-05-01T13:09:25;97415.91;;;20.29;34.10
2841;BME280;53423;49.224;12.074;2023-05-01T13:11:58;97417.00;;;19.99;37.07
2841;BME280;53423;49.224;12.074;2023-05-01T13:14:26;97418.34;;;19.78;37.39
2841;BME280;53423;49.224;12.074;2023-05-01T13:16:55;97414.94;;;20.01;36.12
2841;BME280;53423;49.224;12.074;2023-05-01T13:19:24;97409.88;;;20.22;36.08
2841;BME280;53423;49.224;12.074;2023-05-01T13:21:55;97419.38;;;19.65;40.81
2841;BME280;53423;49.224;12.074;2023-05-01T13:24:34;97415.28;;;19.22;39.13
2841;BME280;53423;49.224;12.074;2023-05-01T13:27:03;97415.22;;;18.38;39.09
2841;BME280;53423;49.224;12.074;2023-05-01T13:29:31;97412.38;;;18.15;41.04